Time;durP1;ratioP1;P1;durP2;ratioP2;P2;SDS_P1;SDS_P2;PMS_P1;PMS_P2;Temp;Humidity;BMP_temperature;BMP_pressure;BME280_temperature;BME280_humidity;BME280_pressure;Samples;Min_cycle;Max_cycle;Signal;HPM_P1;HPM_P2
2020/12/29 00:01:41;;;;;;;8.27;4.15;;;3.80;99.90;;;;;;5116658;27;20147;-59
2020/12/29 00:04:12;;;;;;;8.00;4.20;;;3.80;99.90;;;;;;5116365;27;20200;-59
2020/12/29 00:06:47;;;;;;;6.32;3.90;;;3.80;99.90;;;;;;5115255;27;20035;-63
2020/12/29 00:09:14;;;;;;;7.65;4.10;;;3.80;99.90;;;;;;5117380;27;20035;-60
2020/12/29 00:11:41;;;;;;;9.52;4.32;;;3.80;99.90;;;;;;5109591;27;20487;-60
2020/12/29 00:14:06;;;;;;;6.60;4.13;;;3.70;99.90;;;;;;5119106;27;20168;-60
2020/12/29 00:16:32;;;;;;;9.32;5.13;;;3.80;99.90;;;;;;5115837;27;20106;-60
2020/12/29 00:18:57;;;;;;;9.25;5.15;;;3.70;99.90;;;;;;5121158;27;20023;-60
2020/12/29 00:21:23;;;;;;;10.15;5.20;;;3.70;99.90;;;;;;5115648;27;20453;-58
2020/12/29 00:23:49;;;;;;;11.68;5.18;;;3.70;99.90;;;;;;5114248;27;20031;-59
2020/12/29 00:26:16;;;;;;;9.80;5.38;;;3.70;99.90;;;;;;5110065;27;20032;-60
2020/12/29 00:28:41;;;;;;;8.98;4.90;;;3.70;99.90;;;;;;5116477;27;20400;-59
2020/12/29 00:31:07;;;;;;;8.45;4.72;;;3.80;99.90;;;;;;5109728;27;20503;-60
2020/12/29 00:33:33;;;;;;;9.77;5.25;;;3.70;99.90;;;;;;5118240;27;20559;-61
2020/12/29 00:35:59;;;;;;;8.50;4.75;;;3.80;99.90;;;;;;5113500;27;20480;-60
2020/12/29 00:38:25;;;;;;;10.57;5.47;;;3.70;99.90;;;;;;5122350;27;20035;-60
2020/12/29 00:40:50;;;;;;;9.45;5.53;;;3.70;99.90;;;;;;5119543;27;20028;-60
2020/12/29 00:43:16;;;;;;;11.48;6.35;;;3.70;99.90;;;;;;5118782;27;20510;-60
2020/12/29 00:45:42;;;;;;;10.60;5.55;;;3.70;99.90;;;;;;5120144;27;20135;-59
2020/12/29 00:48:07;;;;;;;10.68;5.75;;;3.70;99.90;;;;;;5121938;27;20411;-61
2020/12/29 00:50:33;;;;;;;11.32;6.03;;;3.70;99.90;;;;;;5122343;27;20039;-61
2020/12/29 00:52:59;;;;;;;12.20;6.60;;;3.70;99.90;;;;;;5118658;27;20027;-62
2020/12/29 00:55:24;;;;;;;12.55;6.38;;;3.70;99.90;;;;;;5122626;27;20039;-59
2020/12/29 00:57:50;;;;;;;11.05;5.30;;;3.70;99.90;;;;;;5119604;27;20035;-59
2020/12/29 01:00:15;;;;;;;11.55;5.72;;;3.80;99.90;;;;;;5121111;27;20039;-62
2020/12/29 01:02:42;;;;;;;12.40;6.60;;;3.70;99.90;;;;;;5124677;27;20054;-59
2020/12/29 01:05:08;;;;;;;9.30;5.15;;;3.80;99.90;;;;;;5120998;27;20032;-63
2020/12/29 01:07:36;;;;;;;12.52;6.18;;;3.80;99.90;;;;;;5124106;27;20034;-59
2020/12/29 01:10:02;;;;;;;12.85;6.50;;;3.80;99.90;;;;;;5121481;27;20039;-63
2020/12/29 01:12:28;;;;;;;19.63;7.63;;;3.80;99.90;;;;;;5123129;27;20034;-60
2020/12/29 01:14:53;;;;;;;21.13;8.10;;;3.90;99.90;;;;;;5122433;27;20421;-60
2020/12/29 01:17:19;;;;;;;14.50;7.38;;;3.90;99.90;;;;;;5121476;27;20039;-61
2020/12/29 01:19:44;;;;;;;13.13;6.10;;;3.90;99.90;;;;;;5123635;27;20160;-61
2020/12/29 01:22:10;;;;;;;15.45;7.30;;;3.90;99.90;;;;;;5120620;27;20035;-59
2020/12/29 01:24:36;;;;;;;12.23;6.80;;;4.00;99.90;;;;;;5123996;27;20117;-59
2020/12/29 01:27:01;;;;;;;13.27;6.47;;;4.00;99.90;;;;;;5120860;27;20391;-59
2020/12/29 01:29:27;;;;;;;13.48;6.47;;;3.90;99.90;;;;;;5122691;27;20050;-60
2020/12/29 01:31:52;;;;;;;18.02;7.13;;;3.90;99.90;;;;;;5122260;27;20031;-61
2020/12/29 01:34:18;;;;;;;17.85;7.68;;;3.90;99.90;;;;;;5121277;27;20457;-62
2020/12/29 01:36:44;;;;;;;15.63;7.43;;;3.90;99.90;;;;;;5123514;27;20080;-60
2020/12/29 01:39:10;;;;;;;13.93;7.30;;;3.90;99.90;;;;;;5120800;27;20075;-60
2020/12/29 01:41:35;;;;;;;14.60;7.25;;;3.90;99.90;;;;;;5119802;27;20031;-60
2020/12/29 01:44:21;;;;;;;16.20;7.50;;;3.90;99.90;;;;;;5120772;27;20114;-58
2020/12/29 01:46:51;;;;;;;14.13;7.53;;;3.90;99.90;;;;;;5118530;27;20023;-59
2020/12/29 01:49:18;;;;;;;16.95;7.97;;;3.90;99.90;;;;;;5122507;27;20039;-59
2020/12/29 01:51:44;;;;;;;16.90;8.25;;;3.90;99.90;;;;;;5120405;27;20042;-60
2020/12/29 01:54:09;;;;;;;14.73;7.88;;;3.90;99.90;;;;;;5123371;27;20027;-58
2020/12/29 01:56:40;;;;;;;16.15;8.35;;;3.90;99.90;;;;;;5119281;27;20110;-61
2020/12/29 01:59:10;;;;;;;16.15;7.40;;;3.90;99.90;;;;;;5116470;27;20040;-61
2020/12/29 02:01:40;;;;;;;15.45;7.30;;;3.90;99.90;;;;;;5115704;27;20092;-60
2020/12/29 02:04:10;;;;;;;17.75;8.20;;;3.90;99.90;;;;;;5116338;27;20065;-61
2020/12/29 02:06:38;;;;;;;17.23;7.97;;;3.90;99.90;;;;;;5115693;27;20566;-60
2020/12/29 02:09:04;;;;;;;13.68;8.13;;;3.90;99.90;;;;;;5115874;27;20040;-60
2020/12/29 02:11:30;;;;;;;16.70;7.88;;;3.90;99.90;;;;;;5122857;27;20035;-59
2020/12/29 02:13:55;;;;;;;16.48;7.70;;;3.90;99.90;;;;;;5120302;27;20035;-59
2020/12/29 02:16:22;;;;;;;14.75;8.57;;;3.90;99.90;;;;;;5121681;27;20506;-61
2020/12/29 02:18:48;;;;;;;14.55;7.97;;;3.90;99.90;;;;;;5119585;27;21563;-61
2020/12/29 02:21:13;;;;;;;18.58;9.55;;;4.00;99.90;;;;;;5120593;27;20119;-60
2020/12/29 02:23:39;;;;;;;17.00;8.55;;;4.00;99.90;;;;;;5122217;27;20391;-59
2020/12/29 02:26:04;;;;;;;14.25;7.85;;;4.00;99.90;;;;;;5119338;27;20123;-61
2020/12/29 02:28:30;;;;;;;17.98;8.52;;;4.00;99.90;;;;;;5122610;27;20023;-62
2020/12/29 02:30:56;;;;;;;14.70;7.97;;;4.00;99.90;;;;;;5120336;27;20042;-59
2020/12/29 02:33:21;;;;;;;15.50;8.07;;;4.00;99.90;;;;;;5121805;27;20024;-59
2020/12/29 02:35:47;;;;;;;18.17;9.18;;;4.00;99.90;;;;;;5119469;27;20510;-60
2020/12/29 02:38:12;;;;;;;16.15;8.18;;;4.00;99.90;;;;;;5120278;27;20043;-59
2020/12/29 02:40:38;;;;;;;19.70;9.43;;;4.00;99.90;;;;;;5122034;27;20016;-61
2020/12/29 02:43:03;;;;;;;15.88;8.27;;;4.10;99.90;;;;;;5119043;27;20039;-59
2020/12/29 02:45:29;;;;;;;16.92;8.95;;;4.10;99.90;;;;;;5122612;27;20509;-59
2020/12/29 02:47:55;;;;;;;16.90;8.45;;;4.10;99.90;;;;;;5119142;27;20543;-63
2020/12/29 02:50:21;;;;;;;15.68;8.40;;;4.10;99.90;;;;;;5120101;27;20042;-59
2020/12/29 02:52:46;;;;;;;17.67;9.13;;;4.10;99.90;;;;;;5120268;27;20591;-62
2020/12/29 02:55:12;;;;;;;19.30;9.80;;;4.10;99.90;;;;;;5119745;27;20101;-61
2020/12/29 02:57:37;;;;;;;21.30;10.90;;;4.10;99.90;;;;;;5120742;27;20031;-60
2020/12/29 03:00:06;;;;;;;22.58;11.05;;;4.10;99.90;;;;;;5118765;27;20043;-61
2020/12/29 03:02:31;;;;;;;19.95;10.15;;;4.10;99.90;;;;;;5115348;27;20031;-60
2020/12/29 03:05:01;;;;;;;18.55;9.35;;;4.10;99.90;;;;;;5121856;27;20088;-61
2020/12/29 03:07:27;;;;;;;20.33;9.48;;;4.10;99.90;;;;;;5118642;27;20028;-62
2020/12/29 03:09:52;;;;;;;18.27;9.02;;;4.10;99.90;;;;;;5121236;27;20084;-60
2020/12/29 03:12:18;;;;;;;16.83;8.85;;;4.10;99.90;;;;;;5119681;27;20403;-61
2020/12/29 03:14:43;;;;;;;20.42;10.35;;;4.00;99.90;;;;;;5119537;27;20043;-60
2020/12/29 03:17:09;;;;;;;17.42;9.30;;;4.10;99.90;;;;;;5120953;27;20039;-64
2020/12/29 03:19:34;;;;;;;20.30;9.13;;;4.10;99.90;;;;;;5118800;27;20476;-62
2020/12/29 03:22:00;;;;;;;16.98;8.52;;;4.10;99.90;;;;;;5121457;27;20035;-61
2020/12/29 03:24:26;;;;;;;17.38;8.85;;;4.10;99.90;;;;;;5118799;27;20031;-61
2020/12/29 03:26:51;;;;;;;16.73;8.18;;;4.10;99.90;;;;;;5119652;27;20075;-63
2020/12/29 03:29:17;;;;;;;16.00;8.18;;;4.10;99.90;;;;;;5119689;27;20047;-60
2020/12/29 03:31:45;;;;;;;16.40;8.73;;;4.10;99.90;;;;;;5119513;27;20020;-64
2020/12/29 03:34:26;;;;;;;14.68;8.02;;;4.10;99.90;;;;;;5120067;27;20043;-61
2020/12/29 03:36:51;;;;;;;;;;;4.10;99.90;;;;;;5120957;27;20042;-60
2020/12/29 03:39:17;;;;;;;16.20;8.68;;;4.10;99.90;;;;;;5119366;27;19911;-59
2020/12/29 03:41:44;;;;;;;14.90;8.18;;;4.10;99.90;;;;;;5119687;27;20027;-62
2020/12/29 03:44:09;;;;;;;20.25;9.73;;;4.10;99.90;;;;;;5120135;27;20035;-61
2020/12/29 03:46:35;;;;;;;23.00;8.85;;;4.10;99.90;;;;;;5118378;27;20032;-61
2020/12/29 03:49:00;;;;;;;18.40;8.63;;;4.10;99.90;;;;;;5121179;27;20023;-60
2020/12/29 03:51:26;;;;;;;16.60;9.10;;;4.10;99.90;;;;;;5113806;27;20118;-60
2020/12/29 03:53:51;;;;;;;17.42;9.02;;;4.10;99.90;;;;;;5118814;27;20391;-61
2020/12/29 03:56:17;;;;;;;16.30;8.35;;;4.10;99.90;;;;;;5118999;27;20479;-63
2020/12/29 03:58:42;;;;;;;17.83;8.55;;;4.00;99.90;;;;;;5119375;27;20032;-62
2020/12/29 04:01:08;;;;;;;16.33;8.60;;;4.00;99.90;;;;;;5118465;27;20518;-62
2020/12/29 04:03:33;;;;;;;18.33;8.90;;;4.00;99.90;;;;;;5118222;27;20458;-60
2020/12/29 04:05:59;;;;;;;17.50;9.50;;;4.00;99.90;;;;;;5121208;27;20095;-62
2020/12/29 04:08:24;;;;;;;16.08;8.70;;;4.10;99.90;;;;;;5117959;27;20373;-62
2020/12/29 04:10:50;;;;;;;18.58;9.63;;;4.00;99.90;;;;;;5120109;27;20031;-66
2020/12/29 04:13:15;;;;;;;21.95;9.88;;;4.00;99.90;;;;;;5118642;27;20027;-62
2020/12/29 04:15:42;;;;;;;21.80;10.32;;;4.00;99.90;;;;;;5118918;27;20028;-62
2020/12/29 04:18:07;;;;;;;18.13;9.60;;;4.00;99.90;;;;;;5119376;27;20051;-61
2020/12/29 04:20:33;;;;;;;18.60;9.55;;;4.00;99.90;;;;;;5118123;27;20063;-63
2020/12/29 04:22:58;;;;;;;18.10;9.60;;;4.00;99.90;;;;;;5120808;27;20114;-63
2020/12/29 04:25:24;;;;;;;19.17;9.65;;;4.00;99.90;;;;;;5113597;27;20059;-61
2020/12/29 04:27:49;;;;;;;17.92;9.18;;;4.00;99.90;;;;;;5120389;27;20035;-59
2020/12/29 04:30:15;;;;;;;18.35;9.20;;;4.00;99.90;;;;;;5118398;27;20506;-63
2020/12/29 04:32:40;;;;;;;18.92;9.38;;;4.00;99.90;;;;;;5119222;27;20034;-61
2020/12/29 04:35:07;;;;;;;20.75;9.52;;;4.00;99.90;;;;;;5119229;27;20040;-62
2020/12/29 04:37:33;;;;;;;19.48;9.05;;;4.00;99.90;;;;;;5118085;27;20519;-62
2020/12/29 04:39:59;;;;;;;19.58;9.95;;;4.00;99.90;;;;;;5120119;27;20031;-61
2020/12/29 04:42:25;;;;;;;19.35;9.38;;;4.00;99.90;;;;;;5117288;27;20028;-60
2020/12/29 04:44:52;;;;;;;18.05;8.88;;;4.00;99.90;;;;;;5120559;27;20070;-61
2020/12/29 04:47:17;;;;;;;19.02;9.57;;;4.00;99.90;;;;;;5117341;27;20108;-61
2020/12/29 04:49:44;;;;;;;19.67;10.35;;;4.00;99.90;;;;;;5119363;27;20081;-61
2020/12/29 04:52:10;;;;;;;17.92;9.65;;;4.00;99.90;;;;;;5118367;27;20030;-60
2020/12/29 04:54:38;;;;;;;17.58;8.77;;;4.00;99.90;;;;;;5118582;27;20027;-61
2020/12/29 04:57:05;;;;;;;23.10;10.43;;;4.10;99.90;;;;;;5118265;28;20089;-61
2020/12/29 04:59:32;;;;;;;17.38;8.98;;;4.00;99.90;;;;;;5117584;27;20030;-61
2020/12/29 05:01:59;;;;;;;20.30;9.90;;;4.00;99.90;;;;;;5120218;27;20467;-61
2020/12/29 05:04:25;;;;;;;23.30;10.80;;;4.00;99.90;;;;;;5116879;27;20039;-61
2020/12/29 05:06:53;;;;;;;20.40;9.70;;;4.00;99.90;;;;;;5120014;27;20031;-62
2020/12/29 05:09:23;;;;;;;18.70;9.18;;;4.00;99.90;;;;;;5117230;27;20020;-60
2020/12/29 05:11:49;;;;;;;17.85;9.32;;;4.00;99.90;;;;;;5120762;27;20046;-62
2020/12/29 05:14:15;;;;;;;20.00;9.80;;;4.00;99.90;;;;;;5117134;27;20129;-61
2020/12/29 05:16:41;;;;;;;19.63;10.20;;;4.00;99.90;;;;;;5119198;27;20118;-61
2020/12/29 05:19:12;;;;;;;16.73;8.50;;;4.00;99.90;;;;;;5118992;27;20038;-63
2020/12/29 05:21:39;;;;;;;;;;;3.90;99.90;;;;;;5120316;27;20499;-61
2020/12/29 05:24:11;;;;;;;17.52;7.72;;;3.90;99.90;;;;;;5122757;27;19911;-61
2020/12/29 05:26:37;;;;;;;21.40;10.18;;;3.90;99.90;;;;;;5120411;27;20056;-60
2020/12/29 05:29:07;;;;;;;21.33;9.38;;;3.90;99.90;;;;;;5121821;27;20177;-60
2020/12/29 05:31:34;;;;;;;16.73;8.15;;;3.90;99.90;;;;;;5122643;27;20071;-61
2020/12/29 05:34:00;;;;;;;17.48;7.78;;;3.90;99.90;;;;;;5120987;27;20036;-61
2020/12/29 05:36:27;;;;;;;16.90;8.27;;;3.90;99.90;;;;;;5123203;27;20035;-61
2020/12/29 05:39:07;;;;;;;17.73;7.80;;;3.90;99.90;;;;;;5119082;27;20088;-63
2020/12/29 05:41:53;;;;;;;17.02;8.02;;;3.90;99.90;;;;;;5118812;27;20042;-60
2020/12/29 05:44:30;;;;;;;19.20;8.35;;;3.80;99.90;;;;;;5120405;27;20515;-64
2020/12/29 05:46:57;;;;;;;13.80;7.25;;;3.90;99.90;;;;;;5115384;27;20039;-60
2020/12/29 05:49:24;;;;;;;15.95;7.95;;;3.80;99.90;;;;;;5123957;27;20365;-60
2020/12/29 05:51:51;;;;;;;14.70;7.88;;;3.80;99.90;;;;;;5115723;27;20153;-63
2020/12/29 05:54:18;;;;;;;19.13;8.75;;;3.80;99.90;;;;;;5123033;27;20035;-61
2020/12/29 05:56:44;;;;;;;19.08;8.70;;;3.80;99.90;;;;;;5118915;27;20487;-60
2020/12/29 05:59:13;;;;;;;17.17;7.95;;;3.80;99.90;;;;;;5122298;27;20104;-61
2020/12/29 06:01:43;;;;;;;18.08;7.82;;;3.80;99.90;;;;;;5121181;27;20084;-60
2020/12/29 06:04:10;;;;;;;16.25;8.13;;;3.80;99.90;;;;;;5122166;27;20453;-61
2020/12/29 06:06:38;;;;;;;16.55;8.45;;;3.80;99.90;;;;;;5121644;27;20027;-62
2020/12/29 06:09:12;;;;;;;18.02;7.88;;;3.80;99.90;;;;;;5121626;27;20046;-61
2020/12/29 06:11:47;;;;;;;15.63;8.40;;;3.80;99.90;;;;;;5120995;27;20031;-61
2020/12/29 06:14:17;;;;;;;18.67;8.88;;;3.80;99.90;;;;;;5122094;27;20043;-61
2020/12/29 06:16:44;;;;;;;16.98;8.40;;;3.80;99.90;;;;;;5120024;27;20533;-60
2020/12/29 06:19:30;;;;;;;22.92;8.68;;;3.70;99.90;;;;;;5121787;27;20035;-61
2020/12/29 06:22:12;;;;;;;16.38;8.13;;;3.70;99.90;;;;;;5116406;27;20488;-61
2020/12/29 06:24:43;;;;;;;14.75;7.90;;;3.80;99.90;;;;;;5120826;27;20453;-61
2020/12/29 06:27:11;;;;;;;16.33;7.63;;;3.70;99.90;;;;;;5121236;27;20501;-61
2020/12/29 06:29:41;;;;;;;15.20;7.38;;;3.70;99.90;;;;;;5120645;27;20039;-60
2020/12/29 06:32:16;;;;;;;17.15;7.60;;;3.70;99.90;;;;;;5120932;27;20446;-61
2020/12/29 06:34:44;;;;;;;15.02;7.78;;;3.70;99.90;;;;;;5119548;27;20043;-62
2020/12/29 06:37:30;;;;;;;17.33;8.20;;;3.70;99.90;;;;;;5121626;27;20035;-61
2020/12/29 06:40:07;;;;;;;18.10;9.10;;;3.70;99.90;;;;;;5116294;27;20062;-61
2020/12/29 06:42:33;;;;;;;17.95;7.70;;;3.70;99.90;;;;;;5121396;27;20030;-60
2020/12/29 06:44:59;;;;;;;18.65;8.70;;;3.60;99.90;;;;;;5118354;27;20043;-61
2020/12/29 06:47:27;;;;;;;15.68;7.78;;;3.60;99.90;;;;;;5122248;27;20024;-62
2020/12/29 06:49:54;;;;;;;18.20;9.20;;;3.70;99.90;;;;;;5119673;27;20110;-62
2020/12/29 06:52:25;;;;;;;16.98;8.63;;;3.60;99.90;;;;;;5122217;27;20043;-64
2020/12/29 06:54:58;;;;;;;16.08;7.43;;;3.60;99.90;;;;;;5116125;27;20047;-61
2020/12/29 06:57:36;;;;;;;17.80;7.85;;;3.60;99.90;;;;;;5121575;27;20027;-63
2020/12/29 07:00:23;;;;;;;19.17;8.80;;;3.60;99.90;;;;;;5120533;27;20055;-61
2020/12/29 07:02:51;;;;;;;17.08;8.13;;;3.70;99.90;;;;;;5115076;27;20111;-63
2020/12/29 07:05:23;;;;;;;17.55;8.30;;;3.60;99.90;;;;;;5114688;27;20137;-63
2020/12/29 07:08:00;;;;;;;18.52;8.25;;;3.60;99.90;;;;;;5115475;27;20562;-61
2020/12/29 07:10:47;;;;;;;13.88;7.18;;;3.60;99.90;;;;;;5111551;27;20055;-62
2020/12/29 07:13:14;;;;;;;17.33;8.40;;;3.60;99.90;;;;;;5121352;27;20026;-62
2020/12/29 07:15:48;;;;;;;16.83;7.97;;;3.70;99.90;;;;;;5118853;27;20032;-61
2020/12/29 07:18:29;;;;;;;19.80;8.27;;;3.70;99.90;;;;;;5121643;27;20031;-61
2020/12/29 07:20:55;;;;;;;;;;;3.70;99.90;;;;;;5115086;27;20491;-61
2020/12/29 07:23:24;;;;;;;16.92;7.60;;;3.60;99.90;;;;;;5121205;27;20215;-61
2020/12/29 07:25:51;;;;;;;17.52;7.88;;;3.70;99.90;;;;;;5118225;27;20125;-61
2020/12/29 07:28:24;;;;;;;19.60;7.97;;;3.60;99.90;;;;;;5121518;27;20031;-61
2020/12/29 07:30:53;;;;;;;17.90;7.65;;;3.60;99.90;;;;;;5114977;27;20027;-62
2020/12/29 07:33:22;;;;;;;17.45;7.63;;;3.60;99.90;;;;;;5121660;27;20023;-61
2020/12/29 07:35:48;;;;;;;16.17;7.15;;;3.60;99.90;;;;;;5118104;27;20035;-61
2020/12/29 07:38:25;;;;;;;16.67;7.85;;;3.70;99.90;;;;;;5113811;27;20519;-61
2020/12/29 07:40:51;;;;;;;17.35;8.02;;;3.60;99.90;;;;;;5115474;27;20442;-63
2020/12/29 07:43:17;;;;;;;18.50;8.20;;;3.60;99.90;;;;;;5120123;27;20063;-61
2020/12/29 07:45:42;;;;;;;19.00;9.00;;;3.60;99.90;;;;;;5113858;27;20107;-61
2020/12/29 07:48:08;;;;;;;16.27;7.53;;;3.70;99.90;;;;;;5119801;27;20111;-63
2020/12/29 07:50:37;;;;;;;17.35;8.15;;;3.70;99.90;;;;;;5115487;27;20056;-61
2020/12/29 07:53:08;;;;;;;17.45;7.75;;;3.60;99.90;;;;;;5118673;27;20092;-61
2020/12/29 07:55:35;;;;;;;18.38;8.48;;;3.70;99.90;;;;;;5119590;27;20503;-60
2020/12/29 07:58:04;;;;;;;20.17;9.68;;;3.60;99.90;;;;;;5119282;27;20055;-61
2020/12/29 08:00:31;;;;;;;17.25;8.32;;;3.60;99.90;;;;;;5119249;27;20062;-61
2020/12/29 08:02:57;;;;;;;19.77;9.13;;;3.60;99.90;;;;;;5115344;27;20086;-60
2020/12/29 08:05:27;;;;;;;23.88;9.45;;;3.60;99.90;;;;;;5117026;27;20047;-64
2020/12/29 08:07:54;;;;;;;19.90;9.50;;;3.70;99.90;;;;;;5120173;27;20035;-62
2020/12/29 08:10:30;;;;;;;23.63;9.80;;;3.60;99.90;;;;;;5112156;27;20120;-61
2020/12/29 08:12:58;;;;;;;21.17;9.05;;;3.60;99.90;;;;;;5113846;27;20042;-61
2020/12/29 08:15:34;;;;;;;22.65;10.25;;;3.70;99.90;;;;;;5116967;27;20030;-61
2020/12/29 08:18:00;;;;;;;20.15;8.82;;;3.70;99.90;;;;;;5107411;27;20389;-61
2020/12/29 08:20:25;;;;;;;24.98;10.48;;;3.70;99.90;;;;;;5117522;27;20306;-62
2020/12/29 08:22:51;;;;;;;23.27;9.40;;;3.70;99.90;;;;;;5109185;27;20036;-60
2020/12/29 08:25:17;;;;;;;17.42;8.50;;;3.70;99.90;;;;;;5118741;27;20043;-61
2020/12/29 08:27:43;;;;;;;24.10;10.63;;;3.70;99.90;;;;;;5109432;27;20147;-61
2020/12/29 08:30:09;;;;;;;21.33;8.45;;;3.70;99.90;;;;;;5119351;27;20115;-61
2020/12/29 08:32:37;;;;;;;19.10;8.20;;;3.70;99.90;;;;;;5122705;27;20659;-62
2020/12/29 08:35:03;;;;;;;16.92;7.72;;;3.70;99.90;;;;;;5117827;27;20416;-61
2020/12/29 08:37:30;;;;;;;20.50;9.07;;;3.70;99.90;;;;;;5112294;27;20034;-62
2020/12/29 08:39:56;;;;;;;19.77;8.25;;;3.70;99.90;;;;;;5105523;28;20058;-61
2020/12/29 08:42:22;;;;;;;16.77;7.82;;;3.70;99.90;;;;;;5112384;27;20399;-60
2020/12/29 08:44:48;;;;;;;16.52;7.82;;;3.70;99.90;;;;;;5096771;27;20031;-61
2020/12/29 08:47:14;;;;;;;17.98;8.80;;;3.70;99.90;;;;;;5100440;28;20035;-62
2020/12/29 08:49:40;;;;;;;18.98;9.05;;;3.70;99.90;;;;;;5114710;27;20559;-62
2020/12/29 08:52:06;;;;;;;21.85;8.07;;;3.70;99.90;;;;;;5118007;27;20162;-62
2020/12/29 08:54:36;;;;;;;20.05;8.02;;;3.70;99.90;;;;;;5110284;27;20036;-61
2020/12/29 08:57:05;;;;;;;;;;;3.70;99.90;;;;;;5098959;27;20415;-64
2020/12/29 08:59:39;;;;;;;20.77;8.90;;;3.80;99.90;;;;;;5109641;27;20261;-62
2020/12/29 09:02:05;;;;;;;16.80;7.32;;;3.80;99.90;;;;;;5102380;27;20100;-62
2020/12/29 09:04:42;;;;;;;19.27;8.40;;;3.80;99.90;;;;;;5105751;27;20032;-60
2020/12/29 09:07:15;;;;;;;18.45;8.73;;;3.80;99.90;;;;;;5109163;27;20027;-62
2020/12/29 09:09:53;;;;;;;19.23;8.25;;;3.80;99.90;;;;;;5113887;27;20056;-64
2020/12/29 09:12:27;;;;;;;19.63;8.52;;;3.90;99.90;;;;;;5117838;27;20027;-60
2020/12/29 09:14:55;;;;;;;20.52;8.73;;;3.90;99.90;;;;;;5120561;27;20042;-61
2020/12/29 09:17:24;;;;;;;20.73;7.78;;;3.90;99.90;;;;;;5120418;27;20500;-62
2020/12/29 09:20:14;;;;;;;18.35;8.90;;;3.90;99.90;;;;;;5123068;27;20042;-63
2020/12/29 09:22:49;;;;;;;20.58;8.63;;;4.00;99.90;;;;;;5119540;27;20039;-61
2020/12/29 09:25:44;;;;;;;20.30;8.98;;;4.00;99.90;;;;;;5120303;27;20465;-61
2020/12/29 09:28:12;;;;;;;15.32;8.05;;;4.00;99.90;;;;;;5115720;27;20039;-61
2020/12/29 09:30:39;;;;;;;16.83;8.13;;;4.10;99.90;;;;;;5116708;27;20035;-61
2020/12/29 09:33:05;;;;;;;18.17;7.93;;;4.00;99.90;;;;;;5122692;27;20114;-61
2020/12/29 09:35:32;;;;;;;18.20;8.82;;;4.10;99.90;;;;;;5123369;27;20118;-62
2020/12/29 09:37:59;;;;;;;15.10;7.45;;;4.10;99.90;;;;;;5120913;27;20077;-62
2020/12/29 09:40:26;;;;;;;18.67;8.20;;;4.10;99.90;;;;;;5121683;27;20419;-60
2020/12/29 09:42:52;;;;;;;18.52;8.20;;;4.20;99.90;;;;;;5122399;27;20035;-62
2020/12/29 09:45:19;;;;;;;17.30;8.43;;;4.20;99.90;;;;;;5121789;27;20027;-63
2020/12/29 09:47:45;;;;;;;19.92;9.00;;;4.20;99.90;;;;;;5121717;27;20020;-63
2020/12/29 09:50:10;;;;;;;16.98;7.45;;;4.30;99.90;;;;;;5121614;27;20511;-61
2020/12/29 09:52:36;;;;;;;17.02;7.35;;;4.30;99.90;;;;;;5118310;27;20035;-59
2020/12/29 09:55:03;;;;;;;18.25;8.82;;;4.30;99.90;;;;;;5122964;27;20043;-62
2020/12/29 09:57:29;;;;;;;16.15;8.23;;;4.40;99.90;;;;;;5122294;27;20118;-62
2020/12/29 09:59:54;;;;;;;17.40;8.10;;;4.40;99.90;;;;;;5121182;27;20144;-61
2020/12/29 10:02:21;;;;;;;15.43;7.20;;;4.40;99.90;;;;;;5121737;27;20078;-62
2020/12/29 10:04:46;;;;;;;17.10;7.07;;;4.50;99.90;;;;;;5122905;27;20414;-61
2020/12/29 10:07:12;;;;;;;16.35;8.10;;;4.50;99.90;;;;;;5118574;27;20038;-61
2020/12/29 10:09:38;;;;;;;15.13;7.20;;;4.50;99.90;;;;;;5119971;27;20031;-61
2020/12/29 10:12:03;;;;;;;15.20;7.25;;;4.50;99.90;;;;;;5123085;27;20084;-59
2020/12/29 10:14:29;;;;;;;13.90;6.97;;;4.50;99.90;;;;;;5120794;27;20108;-60
2020/12/29 10:16:54;;;;;;;16.45;7.20;;;4.50;99.90;;;;;;5122318;27;20031;-66
2020/12/29 10:19:20;;;;;;;15.63;7.35;;;4.50;99.90;;;;;;5123441;27;20027;-60
2020/12/29 10:21:53;;;;;;;16.85;7.72;;;4.50;99.90;;;;;;5122514;27;20564;-60
2020/12/29 10:24:18;;;;;;;16.30;7.45;;;4.50;99.90;;;;;;5120856;27;20502;-59
2020/12/29 10:26:44;;;;;;;15.63;6.88;;;4.50;99.90;;;;;;5122555;27;20106;-61
2020/12/29 10:29:10;;;;;;;15.30;7.05;;;4.50;99.90;;;;;;5119418;27;20043;-61
2020/12/29 10:31:35;;;;;;;16.25;6.95;;;4.50;99.90;;;;;;5123770;27;20031;-61
2020/12/29 10:34:02;;;;;;;15.52;7.45;;;4.50;99.90;;;;;;5116022;27;20062;-62
2020/12/29 10:36:35;;;;;;;14.48;7.07;;;4.50;99.90;;;;;;5122789;27;20035;-60
2020/12/29 10:39:01;;;;;;;13.88;7.03;;;4.50;99.90;;;;;;5118502;27;20357;-60
2020/12/29 10:41:31;;;;;;;17.90;7.57;;;4.50;99.90;;;;;;5118381;27;20032;-60
2020/12/29 10:43:56;;;;;;;12.90;6.57;;;4.50;99.90;;;;;;5116879;27;20470;-59
2020/12/29 10:46:22;;;;;;;15.77;7.80;;;4.60;99.90;;;;;;5115040;27;20035;-60
2020/12/29 10:48:49;;;;;;;14.23;6.38;;;4.50;99.90;;;;;;5121368;27;20035;-60
2020/12/29 10:51:18;;;;;;;16.27;7.88;;;4.60;99.90;;;;;;5118928;27;20031;-62
2020/12/29 10:53:44;;;;;;;15.50;7.50;;;4.60;99.90;;;;;;5115676;27;20459;-63
2020/12/29 10:56:10;;;;;;;13.18;6.95;;;4.70;99.90;;;;;;5116470;27;20034;-60
2020/12/29 10:58:41;;;;;;;14.10;7.00;;;4.70;99.90;;;;;;5117861;27;20115;-61
2020/12/29 11:01:07;;;;;;;14.60;7.28;;;4.80;99.90;;;;;;5112373;27;20047;-60
2020/12/29 11:03:33;;;;;;;13.68;6.90;;;4.90;99.90;;;;;;5118464;27;20061;-60
2020/12/29 11:05:58;;;;;;;13.13;6.47;;;4.90;99.90;;;;;;5115401;27;20046;-61
2020/12/29 11:08:28;;;;;;;14.57;7.38;;;4.90;99.90;;;;;;5113178;27;20032;-60
2020/12/29 11:10:54;;;;;;;14.13;6.60;;;5.00;99.90;;;;;;5114136;27;20031;-61
2020/12/29 11:13:20;;;;;;;16.48;7.53;;;5.00;99.90;;;;;;5110785;27;20441;-59
2020/12/29 11:15:47;;;;;;;19.48;8.25;;;5.00;99.90;;;;;;5112956;27;20118;-61
2020/12/29 11:18:14;;;;;;;24.50;10.63;;;5.00;99.90;;;;;;5114516;27;20685;-65
2020/12/29 11:20:39;;;;;;;19.27;10.55;;;5.00;99.90;;;;;;5115994;27;20506;-61
2020/12/29 11:23:05;;;;;;;24.45;12.55;;;5.20;99.90;;;;;;5118152;27;20066;-61
2020/12/29 11:25:31;;;;;;;20.02;10.02;;;5.30;99.90;;;;;;5123336;27;20035;-62
2020/12/29 11:27:56;;;;;;;28.35;11.30;;;5.20;99.90;;;;;;5108790;27;20035;-61
2020/12/29 11:30:22;;;;;;;21.27;10.75;;;5.20;99.90;;;;;;5113363;27;20028;-60
2020/12/29 11:32:47;;;;;;;26.30;11.25;;;5.30;99.90;;;;;;5116707;27;20028;-62
2020/12/29 11:35:13;;;;;;;26.48;12.30;;;5.30;99.90;;;;;;5117895;27;20442;-64
2020/12/29 11:37:38;;;;;;;22.25;11.40;;;5.30;99.90;;;;;;5121104;27;20032;-61
2020/12/29 11:40:04;;;;;;;22.70;11.40;;;5.30;99.90;;;;;;5115043;27;20675;-62
2020/12/29 11:42:29;;;;;;;20.33;10.43;;;5.30;99.90;;;;;;5114695;27;20027;-61
2020/12/29 11:44:55;;;;;;;19.83;10.18;;;5.30;99.90;;;;;;5116644;27;20407;-62
2020/12/29 11:47:20;;;;;;;18.40;9.48;;;5.30;99.90;;;;;;5118232;27;20044;-62
2020/12/29 11:49:46;;;;;;;17.17;9.80;;;5.30;99.90;;;;;;5119222;27;20084;-62
2020/12/29 11:52:11;;;;;;;18.77;9.65;;;5.30;99.90;;;;;;5117858;27;20035;-61
2020/12/29 11:54:37;;;;;;;20.33;8.95;;;5.30;99.90;;;;;;5113110;27;20035;-62
2020/12/29 11:57:03;;;;;;;15.40;8.52;;;5.40;99.90;;;;;;5116080;27;20028;-60
2020/12/29 11:59:29;;;;;;;18.88;9.10;;;5.30;99.90;;;;;;5118076;27;20520;-61
2020/12/29 12:01:54;;;;;;;16.83;7.95;;;5.30;99.90;;;;;;5113966;27;20466;-61
2020/12/29 12:04:20;;;;;;;14.55;7.85;;;5.40;99.90;;;;;;5117743;27;20027;-62
2020/12/29 12:06:46;;;;;;;14.13;7.35;;;5.30;99.90;;;;;;5117553;27;20095;-63
2020/12/29 12:09:12;;;;;;;14.27;6.95;;;5.30;99.90;;;;;;5116485;27;20404;-61
2020/12/29 12:11:38;;;;;;;12.32;6.45;;;5.40;99.90;;;;;;5119928;27;20027;-61
2020/12/29 12:14:04;;;;;;;13.00;6.38;;;5.30;99.90;;;;;;5117778;27;20076;-61
2020/12/29 12:16:37;;;;;;;11.55;6.13;;;5.30;99.90;;;;;;5120596;27;20115;-61
2020/12/29 12:19:03;;;;;;;15.23;6.63;;;5.30;99.90;;;;;;5114436;27;20034;-60
2020/12/29 12:21:33;;;;;;;11.95;6.10;;;5.40;99.90;;;;;;5121035;27;20023;-60
2020/12/29 12:23:59;;;;;;;10.90;5.50;;;5.40;99.90;;;;;;5113562;27;20061;-61
2020/12/29 12:26:25;;;;;;;10.70;5.22;;;5.40;99.90;;;;;;5120380;27;20031;-60
2020/12/29 12:28:51;;;;;;;11.60;6.07;;;5.40;99.90;;;;;;5113078;27;20104;-61
2020/12/29 12:31:16;;;;;;;9.63;5.55;;;5.40;99.90;;;;;;5122529;27;20724;-60
2020/12/29 12:33:43;;;;;;;10.98;5.45;;;5.40;99.90;;;;;;5123040;27;20039;-62
2020/12/29 12:36:10;;;;;;;9.75;5.13;;;5.40;99.90;;;;;;5122368;27;20042;-60
2020/12/29 12:38:35;;;;;;;9.25;5.35;;;5.30;99.90;;;;;;5123945;27;20122;-61
2020/12/29 12:41:02;;;;;;;10.75;5.00;;;5.30;99.90;;;;;;5121577;27;20103;-61
2020/12/29 12:43:28;;;;;;;10.25;4.85;;;5.40;99.90;;;;;;5124922;27;20032;-62
2020/12/29 12:45:54;;;;;;;10.15;5.20;;;5.50;99.90;;;;;;5121435;27;20440;-60
2020/12/29 12:48:20;;;;;;;9.95;4.22;;;5.50;99.90;;;;;;5124454;27;20527;-62
2020/12/29 12:50:45;;;;;;;9.15;4.20;;;5.60;99.90;;;;;;5122114;27;20023;-60